sensor_id;sensor_type;location;lat;lon;timestamp;temperature;humidity
15713;DHT22;7957;51.608;6.916;2022-10-15T00:01:15;12.50;99.90
15713;DHT22;7957;51.608;6.916;2022-10-15T00:03:44;12.50;99.90
15713;DHT22;7957;51.608;6.916;2022-10-15T00:06:13;12.50;99.90
15713;DHT22;7957;51.608;6.916;2022-10-15T00:08:41;12.50;99.90
15713;DHT22;7957;51.608;6.916;2022-10-15T00:11:10;12.40;99.90
15713;DHT22;7957;51.608;6.916;2022-10-15T00:13:39;12.40;99.90
15713;DHT22;7957;51.608;6.916;2022-10-15T00:16:07;12.40;99.90
15713;DHT22;7957;51.608;6.916;2022-10-15T00:18:35;12.40;99.90
15713;DHT22;7957;51.608;6.916;2022-10-15T00:21:05;12.40;99.90
15713;DHT22;7957;51.608;6.916;2022-10-15T00:23:32;12.40;99.90
15713;DHT22;7957;51.608;6.916;2022-10-15T00:26:04;12.40;99.90
15713;DHT22;7957;51.608;6.916;2022-10-15T00:28:31;12.40;99.90
15713;DHT22;7957;51.608;6.916;2022-10-15T00:31:02;12.40;99.90
15713;DHT22;7957;51.608;6.916;2022-10-15T00:33:29;12.30;99.90
15713;DHT22;7957;51.608;6.916;2022-10-15T00:36:01;12.30;99.90
15713;DHT22;7957;51.608;6.916;2022-10-15T00:38:29;12.30;99.90
15713;DHT22;7957;51.608;6.916;2022-10-15T00:40:56;12.20;99.90
15713;DHT22;7957;51.608;6.916;2022-10-15T00:43:38;12.20;99.90
15713;DHT22;7957;51.608;6.916;2022-10-15T00:46:17;12.20;99.90
15713;DHT22;7957;51.608;6.916;2022-10-15T00:48:46;12.20;99.90
15713;DHT22;7957;51.608;6.916;2022-10-15T00:51:16;12.20;99.90
15713;DHT22;7957;51.608;6.916;2022-10-15T00:53:43;12.20;99.90
15713;DHT22;7957;51.608;6.916;2022-10-15T00:56:11;12.20;99.90
15713;DHT22;7957;51.608;6.916;2022-10-15T00:58:39;12.20;99.90
15713;DHT22;7957;51.608;6.916;2022-10-15T01:01:07;12.10;99.90
15713;DHT22;7957;51.608;6.916;2022-10-15T01:03:35;12.10;99.90
15713;DHT22;7957;51.608;6.916;2022-10-15T01:06:02;12.10;99.90
15713;DHT22;7957;51.608;6.916;2022-10-15T01:08:29;12.10;99.90
15713;DHT22;7957;51.608;6.916;2022-10-15T01:11:06;12.10;99.90
15713;DHT22;7957;51.608;6.916;2022-10-15T01:13:37;12.10;99.90
15713;DHT22;7957;51.608;6.916;2022-10-15T01:16:12;12.00;99.90
15713;DHT22;7957;51.608;6.916;2022-10-15T01:18:45;12.00;99.90
15713;DHT22;7957;51.608;6.916;2022-10-15T01:21:17;12.10;99.90
15713;DHT22;7957;51.608;6.916;2022-10-15T01:24:15;12.00;99.90
15713;DHT22;7957;51.608;6.916;2022-10-15T01:27:04;12.00;99.90
15713;DHT22;7957;51.608;6.916;2022-10-15T01:29:49;12.00;99.90
15713;DHT22;7957;51.608;6.916;2022-10-15T01:32:22;12.10;99.90
15713;DHT22;7957;51.608;6.916;2022-10-15T01:34:55;12.00;99.90
15713;DHT22;7957;51.608;6.916;2022-10-15T01:37:26;12.10;99.90
15713;DHT22;7957;51.608;6.916;2022-10-15T01:40:01;12.10;99.90
15713;DHT22;7957;51.608;6.916;2022-10-15T01:42:35;12.10;99.90
15713;DHT22;7957;51.608;6.916;2022-10-15T01:45:07;12.10;99.90
15713;DHT22;7957;51.608;6.916;2022-10-15T01:47:41;12.10;99.90
15713;DHT22;7957;51.608;6.916;2022-10-15T01:50:10;12.10;99.90
15713;DHT22;7957;51.608;6.916;2022-10-15T01:52:39;12.20;99.90
15713;DHT22;7957;51.608;6.916;2022-10-15T01:55:10;12.20;99.90
15713;DHT22;7957;51.608;6.916;2022-10-15T01:57:40;12.20;99.90
15713;DHT22;7957;51.608;6.916;2022-10-15T02:00:08;12.20;99.90
15713;DHT22;7957;51.608;6.916;2022-10-15T02:02:37;12.20;99.90
15713;DHT22;7957;51.608;6.916;2022-10-15T02:05:05;12.20;99.90
15713;DHT22;7957;51.608;6.916;2022-10-15T02:07:37;12.30;99.90
15713;DHT22;7957;51.608;6.916;2022-10-15T02:10:13;12.30;99.90
15713;DHT22;7957;51.608;6.916;2022-10-15T02:12:47;12.30;99.90
15713;DHT22;7957;51.608;6.916;2022-10-15T02:15:23;12.30;99.90
15713;DHT22;7957;51.608;6.916;2022-10-15T02:17:57;12.40;99.90
15713;DHT22;7957;51.608;6.916;2022-10-15T02:20:30;12.30;99.90
15713;DHT22;7957;51.608;6.916;2022-10-15T02:23:01;12.40;99.90
15713;DHT22;7957;51.608;6.916;2022-10-15T02:25:30;12.40;99.90
15713;DHT22;7957;51.608;6.916;2022-10-15T02:28:00;12.40;99.90
15713;DHT22;7957;51.608;6.916;2022-10-15T02:30:29;12.40;99.90
15713;DHT22;7957;51.608;6.916;2022-10-15T02:32:58;12.40;99.90
15713;DHT22;7957;51.608;6.916;2022-10-15T02:35:26;12.40;99.90
15713;DHT22;7957;51.608;6.916;2022-10-15T02:37:54;12.40;99.90
15713;DHT22;7957;51.608;6.916;2022-10-15T02:40:26;12.50;99.90
15713;DHT22;7957;51.608;6.916;2022-10-15T02:42:55;12.50;99.90
15713;DHT22;7957;51.608;6.916;2022-10-15T02:45:21;12.50;99.90
15713;DHT22;7957;51.608;6.916;2022-10-15T02:47:48;12.50;99.90
15713;DHT22;7957;51.608;6.916;2022-10-15T02:50:17;12.50;99.90
15713;DHT22;7957;51.608;6.916;2022-10-15T02:52:44;12.50;99.90
15713;DHT22;7957;51.608;6.916;2022-10-15T02:55:10;12.50;99.90
15713;DHT22;7957;51.608;6.916;2022-10-15T02:57:37;12.50;99.90
15713;DHT22;7957;51.608;6.916;2022-10-15T03:00:06;12.50;99.90
15713;DHT22;7957;51.608;6.916;2022-10-15T03:02:33;12.50;99.90
15713;DHT22;7957;51.608;6.916;2022-10-15T03:05:00;12.50;99.90
15713;DHT22;7957;51.608;6.916;2022-10-15T03:07:28;12.50;99.90
15713;DHT22;7957;51.608;6.916;2022-10-15T03:09:55;12.50;99.90
15713;DHT22;7957;51.608;6.916;2022-10-15T03:12:22;12.50;99.90
15713;DHT22;7957;51.608;6.916;2022-10-15T03:14:50;12.60;99.90
15713;DHT22;7957;51.608;6.916;2022-10-15T03:17:17;12.50;99.90
15713;DHT22;7957;51.608;6.916;2022-10-15T03:19:44;12.50;99.90
15713;DHT22;7957;51.608;6.916;2022-10-15T03:22:11;12.50;99.90
15713;DHT22;7957;51.608;6.916;2022-10-15T03:24:39;12.60;99.90
15713;DHT22;7957;51.608;6.916;2022-10-15T03:27:06;12.60;99.90
15713;DHT22;7957;51.608;6.916;2022-10-15T03:29:33;12.60;99.90
15713;DHT22;7957;51.608;6.916;2022-10-15T03:32:00;12.60;99.90
15713;DHT22;7957;51.608;6.916;2022-10-15T03:34:27;12.60;99.90
15713;DHT22;7957;51.608;6.916;2022-10-15T03:36:53;12.60;99.90
15713;DHT22;7957;51.608;6.916;2022-10-15T03:39:20;12.60;99.90
15713;DHT22;7957;51.608;6.916;2022-10-15T03:41:51;12.60;99.90
15713;DHT22;7957;51.608;6.916;2022-10-15T03:44:18;12.60;99.90
15713;DHT22;7957;51.608;6.916;2022-10-15T03:46:45;12.60;99.90
15713;DHT22;7957;51.608;6.916;2022-10-15T03:49:12;12.60;99.90
15713;DHT22;7957;51.608;6.916;2022-10-15T03:51:39;12.60;99.90
15713;DHT22;7957;51.608;6.916;2022-10-15T03:54:06;12.60;99.90
15713;DHT22;7957;51.608;6.916;2022-10-15T03:56:34;12.60;99.90
15713;DHT22;7957;51.608;6.916;2022-10-15T03:59:02;12.60;99.90
15713;DHT22;7957;51.608;6.916;2022-10-15T04:01:29;12.60;99.90
15713;DHT22;7957;51.608;6.916;2022-10-15T04:03:56;12.60;99.90
15713;DHT22;7957;51.608;6.916;2022-10-15T04:06:23;12.60;99.90
15713;DHT22;7957;51.608;6.916;2022-10-15T04:08:50;12.60;99.90
15713;DHT22;7957;51.608;6.916;2022-10-15T04:11:17;12.60;99.90
15713;DHT22;7957;51.608;6.916;2022-10-15T04:13:47;12.60;99.90
15713;DHT22;7957;51.608;6.916;2022-10-15T04:16:16;12.60;99.90
15713;DHT22;7957;51.608;6.916;2022-10-15T04:18:43;12.60;99.90
15713;DHT22;7957;51.608;6.916;2022-10-15T04:21:10;12.60;99.90
15713;DHT22;7957;51.608;6.916;2022-10-15T04:23:37;12.60;99.90
15713;DHT22;7957;51.608;6.916;2022-10-15T04:26:04;12.60;99.90
15713;DHT22;7957;51.608;6.916;2022-10-15T04:28:32;12.60;99.90
15713;DHT22;7957;51.608;6.916;2022-10-15T04:30:59;12.60;99.90
15713;DHT22;7957;51.608;6.916;2022-10-15T04:33:29;12.60;99.90
15713;DHT22;7957;51.608;6.916;2022-10-15T04:36:00;12.60;99.90
15713;DHT22;7957;51.608;6.916;2022-10-15T04:38:27;12.60;99.90
15713;DHT22;7957;51.608;6.916;2022-10-15T04:40:58;12.60;99.90
15713;DHT22;7957;51.608;6.916;2022-10-15T04:43:26;12.60;99.90
15713;DHT22;7957;51.608;6.916;2022-10-15T04:45:55;12.60;99.90
15713;DHT22;7957;51.608;6.916;2022-10-15T04:48:22;12.60;99.90
15713;DHT22;7957;51.608;6.916;2022-10-15T04:50:51;12.60;99.90
15713;DHT22;7957;51.608;6.916;2022-10-15T04:53:18;12.60;99.90
15713;DHT22;7957;51.608;6.916;2022-10-15T04:55:45;12.60;99.90
15713;DHT22;7957;51.608;6.916;2022-10-15T04:58:12;12.60;99.90
15713;DHT22;7957;51.608;6.916;2022-10-15T05:00:39;12.60;99.90
15713;DHT22;7957;51.608;6.916;2022-10-15T05:03:06;12.60;99.90
15713;DHT22;7957;51.608;6.916;2022-10-15T05:05:33;12.60;99.90
15713;DHT22;7957;51.608;6.916;2022-10-15T05:08:01;12.60;99.90
15713;DHT22;7957;51.608;6.916;2022-10-15T05:10:29;12.60;99.90
15713;DHT22;7957;51.608;6.916;2022-10-15T05:12:55;12.60;99.90
15713;DHT22;7957;51.608;6.916;2022-10-15T05:15:24;12.60;99.90
15713;DHT22;7957;51.608;6.916;2022-10-15T05:17:51;12.60;99.90
15713;DHT22;7957;51.608;6.916;2022-10-15T05:20:18;12.60;99.90
15713;DHT22;7957;51.608;6.916;2022-10-15T05:22:45;12.60;99.90
15713;DHT22;7957;51.608;6.916;2022-10-15T05:25:13;12.60;99.90
15713;DHT22;7957;51.608;6.916;2022-10-15T05:27:41;12.60;99.90
15713;DHT22;7957;51.608;6.916;2022-10-15T05:30:09;12.60;99.90
15713;DHT22;7957;51.608;6.916;2022-10-15T05:32:36;12.60;99.90
15713;DHT22;7957;51.608;6.916;2022-10-15T05:35:03;12.60;99.90
15713;DHT22;7957;51.608;6.916;2022-10-15T05:37:30;12.60;99.90
15713;DHT22;7957;51.608;6.916;2022-10-15T05:39:57;12.60;99.90
15713;DHT22;7957;51.608;6.916;2022-10-15T05:42:25;12.60;99.90
15713;DHT22;7957;51.608;6.916;2022-10-15T05:44:52;12.60;99.90
15713;DHT22;7957;51.608;6.916;2022-10-15T05:47:19;12.60;99.90
15713;DHT22;7957;51.608;6.916;2022-10-15T05:49:46;12.60;99.90
15713;DHT22;7957;51.608;6.916;2022-10-15T05:52:13;12.50;99.90
15713;DHT22;7957;51.608;6.916;2022-10-15T05:54:40;12.50;99.90
15713;DHT22;7957;51.608;6.916;2022-10-15T05:57:07;12.50;99.90
15713;DHT22;7957;51.608;6.916;2022-10-15T05:59:35;12.60;99.90
15713;DHT22;7957;51.608;6.916;2022-10-15T06:02:02;12.60;99.90
15713;DHT22;7957;51.608;6.916;2022-10-15T06:04:28;12.50;99.90
15713;DHT22;7957;51.608;6.916;2022-10-15T06:06:56;12.50;99.90
15713;DHT22;7957;51.608;6.916;2022-10-15T06:09:23;12.50;99.90
15713;DHT22;7957;51.608;6.916;2022-10-15T06:11:50;12.50;99.90
15713;DHT22;7957;51.608;6.916;2022-10-15T06:14:17;12.50;99.90
15713;DHT22;7957;51.608;6.916;2022-10-15T06:16:45;12.50;99.90
15713;DHT22;7957;51.608;6.916;2022-10-15T06:19:15;12.50;99.90
15713;DHT22;7957;51.608;6.916;2022-10-15T06:21:42;12.50;99.90
15713;DHT22;7957;51.608;6.916;2022-10-15T06:24:09;12.40;99.90
15713;DHT22;7957;51.608;6.916;2022-10-15T06:26:36;12.40;99.90
15713;DHT22;7957;51.608;6.916;2022-10-15T06:29:02;12.40;99.90
15713;DHT22;7957;51.608;6.916;2022-10-15T06:31:30;12.40;99.90
15713;DHT22;7957;51.608;6.916;2022-10-15T06:33:58;12.40;99.90
15713;DHT22;7957;51.608;6.916;2022-10-15T06:36:25;12.40;99.90
15713;DHT22;7957;51.608;6.916;2022-10-15T06:38:52;12.40;99.90
15713;DHT22;7957;51.608;6.916;2022-10-15T06:41:19;12.40;99.90
15713;DHT22;7957;51.608;6.916;2022-10-15T06:43:48;12.40;99.90
15713;DHT22;7957;51.608;6.916;2022-10-15T06:46:15;12.40;99.90
15713;DHT22;7957;51.608;6.916;2022-10-15T06:48:42;12.40;99.90
15713;DHT22;7957;51.608;6.916;2022-10-15T06:51:10;12.40;99.90
15713;DHT22;7957;51.608;6.916;2022-10-15T06:53:38;12.40;99.90
15713;DHT22;7957;51.608;6.916;2022-10-15T06:56:06;12.40;99.90
15713;DHT22;7957;51.608;6.916;2022-10-15T06:58:33;12.40;99.90
15713;DHT22;7957;51.608;6.916;2022-10-15T07:01:00;12.40;99.90
15713;DHT22;7957;51.608;6.916;2022-10-15T07:03:28;12.40;99.90
15713;DHT22;7957;51.608;6.916;2022-10-15T07:05:55;12.50;99.90
15713;DHT22;7957;51.608;6.916;2022-10-15T07:08:24;12.50;99.90
15713;DHT22;7957;51.608;6.916;2022-10-15T07:10:50;12.50;99.90
15713;DHT22;7957;51.608;6.916;2022-10-15T07:13:17;12.50;99.90
15713;DHT22;7957;51.608;6.916;2022-10-15T07:15:44;12.50;99.90
15713;DHT22;7957;51.608;6.916;2022-10-15T07:18:14;12.50;99.90
15713;DHT22;7957;51.608;6.916;2022-10-15T07:20:40;12.40;99.90
15713;DHT22;7957;51.608;6.916;2022-10-15T07:23:07;12.50;99.90
15713;DHT22;7957;51.608;6.916;2022-10-15T07:25:36;12.50;99.90
15713;DHT22;7957;51.608;6.916;2022-10-15T07:28:03;12.50;99.90
15713;DHT22;7957;51.608;6.916;2022-10-15T07:30:31;12.50;99.90
15713;DHT22;7957;51.608;6.916;2022-10-15T07:32:58;12.50;99.90
15713;DHT22;7957;51.608;6.916;2022-10-15T07:35:26;12.60;99.90
15713;DHT22;7957;51.608;6.916;2022-10-15T07:37:53;12.60;99.90
15713;DHT22;7957;51.608;6.916;2022-10-15T07:40:20;12.60;99.90
15713;DHT22;7957;51.608;6.916;2022-10-15T07:42:53;12.70;99.90
15713;DHT22;7957;51.608;6.916;2022-10-15T07:45:20;12.70;99.90
15713;DHT22;7957;51.608;6.916;2022-10-15T07:47:47;12.70;99.90
15713;DHT22;7957;51.608;6.916;2022-10-15T07:50:14;12.80;99.90
15713;DHT22;7957;51.608;6.916;2022-10-15T07:52:41;12.80;99.90
15713;DHT22;7957;51.608;6.916;2022-10-15T07:55:08;12.90;99.90
15713;DHT22;7957;51.608;6.916;2022-10-15T07:57:35;12.90;99.90
15713;DHT22;7957;51.608;6.916;2022-10-15T08:00:06;13.00;99.90
15713;DHT22;7957;51.608;6.916;2022-10-15T08:02:33;13.00;99.90
15713;DHT22;7957;51.608;6.916;2022-10-15T08:05:00;13.00;99.90
15713;DHT22;7957;51.608;6.916;2022-10-15T08:07:27;13.00;99.90
15713;DHT22;7957;51.608;6.916;2022-10-15T08:09:53;13.00;99.90
15713;DHT22;7957;51.608;6.916;2022-10-15T08:12:20;13.10;99.90
15713;DHT22;7957;51.608;6.916;2022-10-15T08:14:47;13.10;99.90
15713;DHT22;7957;51.608;6.916;2022-10-15T08:17:16;13.10;99.90
15713;DHT22;7957;51.608;6.916;2022-10-15T08:19:43;13.10;99.90
15713;DHT22;7957;51.608;6.916;2022-10-15T08:22:10;13.20;99.90
15713;DHT22;7957;51.608;6.916;2022-10-15T08:24:37;13.10;99.90
15713;DHT22;7957;51.608;6.916;2022-10-15T08:27:04;13.20;99.90
15713;DHT22;7957;51.608;6.916;2022-10-15T08:29:30;13.20;99.90
15713;DHT22;7957;51.608;6.916;2022-10-15T08:31:57;13.20;99.90
15713;DHT22;7957;51.608;6.916;2022-10-15T08:34:26;13.20;99.90
15713;DHT22;7957;51.608;6.916;2022-10-15T08:36:53;13.30;99.90
15713;DHT22;7957;51.608;6.916;2022-10-15T08:39:20;13.40;99.90
15713;DHT22;7957;51.608;6.916;2022-10-15T08:41:49;13.50;99.90
15713;DHT22;7957;51.608;6.916;2022-10-15T08:44:21;13.50;99.90
15713;DHT22;7957;51.608;6.916;2022-10-15T08:46:52;13.50;99.90
15713;DHT22;7957;51.608;6.916;2022-10-15T08:49:32;13.60;99.90
15713;DHT22;7957;51.608;6.916;2022-10-15T08:52:06;13.60;99.90
15713;DHT22;7957;51.608;6.916;2022-10-15T08:54:34;13.70;99.90
15713;DHT22;7957;51.608;6.916;2022-10-15T08:57:10;13.80;99.90
15713;DHT22;7957;51.608;6.916;2022-10-15T08:59:47;13.80;99.90
15713;DHT22;7957;51.608;6.916;2022-10-15T09:02:18;13.90;99.90
15713;DHT22;7957;51.608;6.916;2022-10-15T09:04:53;13.90;99.90
15713;DHT22;7957;51.608;6.916;2022-10-15T09:07:28;13.90;99.90
15713;DHT22;7957;51.608;6.916;2022-10-15T09:10:09;14.00;99.90
15713;DHT22;7957;51.608;6.916;2022-10-15T09:12:45;14.00;99.90
15713;DHT22;7957;51.608;6.916;2022-10-15T09:15:16;14.00;99.90
15713;DHT22;7957;51.608;6.916;2022-10-15T09:17:47;14.00;99.90
15713;DHT22;7957;51.608;6.916;2022-10-15T09:20:18;14.10;99.90
15713;DHT22;7957;51.608;6.916;2022-10-15T09:22:49;14.10;99.90
15713;DHT22;7957;51.608;6.916;2022-10-15T09:25:18;14.20;99.90
15713;DHT22;7957;51.608;6.916;2022-10-15T09:27:47;14.20;99.90
15713;DHT22;7957;51.608;6.916;2022-10-15T09:30:31;14.30;99.90
15713;DHT22;7957;51.608;6.916;2022-10-15T09:33:04;14.30;99.90
15713;DHT22;7957;51.608;6.916;2022-10-15T09:35:39;14.40;99.90
15713;DHT22;7957;51.608;6.916;2022-10-15T09:38:26;14.50;99.90
15713;DHT22;7957;51.608;6.916;2022-10-15T09:41:24;14.90;99.90
15713;DHT22;7957;51.608;6.916;2022-10-15T09:43:55;14.80;99.90
15713;DHT22;7957;51.608;6.916;2022-10-15T09:46:23;14.80;99.90
15713;DHT22;7957;51.608;6.916;2022-10-15T09:52:19;14.70;99.90
15713;DHT22;7957;51.608;6.916;2022-10-15T09:54:57;14.70;99.90
15713;DHT22;7957;51.608;6.916;2022-10-15T09:57:28;14.80;99.90
15713;DHT22;7957;51.608;6.916;2022-10-15T09:59:58;14.80;99.90
15713;DHT22;7957;51.608;6.916;2022-10-15T10:02:27;14.90;99.90
15713;DHT22;7957;51.608;6.916;2022-10-15T10:04:54;14.90;99.90
15713;DHT22;7957;51.608;6.916;2022-10-15T10:07:33;14.90;99.90
15713;DHT22;7957;51.608;6.916;2022-10-15T10:10:04;14.90;99.90
15713;DHT22;7957;51.608;6.916;2022-10-15T10:12:34;14.90;99.90
15713;DHT22;7957;51.608;6.916;2022-10-15T10:15:05;14.90;99.90
15713;DHT22;7957;51.608;6.916;2022-10-15T10:17:34;15.00;99.90
15713;DHT22;7957;51.608;6.916;2022-10-15T10:22:49;15.00;99.90
15713;DHT22;7957;51.608;6.916;2022-10-15T10:25:38;15.00;99.90
15713;DHT22;7957;51.608;6.916;2022-10-15T10:28:15;15.10;99.90
15713;DHT22;7957;51.608;6.916;2022-10-15T10:30:50;15.10;99.90
15713;DHT22;7957;51.608;6.916;2022-10-15T10:36:19;15.20;99.90
15713;DHT22;7957;51.608;6.916;2022-10-15T10:39:02;15.20;99.90
15713;DHT22;7957;51.608;6.916;2022-10-15T10:41:48;15.30;99.90
15713;DHT22;7957;51.608;6.916;2022-10-15T10:44:21;15.30;99.90
15713;DHT22;7957;51.608;6.916;2022-10-15T10:47:13;15.30;99.90
15713;DHT22;7957;51.608;6.916;2022-10-15T10:49:42;15.30;99.90
15713;DHT22;7957;51.608;6.916;2022-10-15T10:52:24;15.30;99.90
15713;DHT22;7957;51.608;6.916;2022-10-15T10:54:59;15.30;99.90
15713;DHT22;7957;51.608;6.916;2022-10-15T10:57:41;15.40;99.90
15713;DHT22;7957;51.608;6.916;2022-10-15T11:00:14;15.40;99.90
15713;DHT22;7957;51.608;6.916;2022-10-15T11:02:42;15.40;99.90
15713;DHT22;7957;51.608;6.916;2022-10-15T11:05:10;15.40;99.90
15713;DHT22;7957;51.608;6.916;2022-10-15T11:07:45;15.30;99.90
15713;DHT22;7957;51.608;6.916;2022-10-15T11:10:22;15.30;99.90
15713;DHT22;7957;51.608;6.916;2022-10-15T11:13:12;15.30;99.90
15713;DHT22;7957;51.608;6.916;2022-10-15T11:15:48;15.30;99.90
15713;DHT22;7957;51.608;6.916;2022-10-15T11:18:27;15.30;99.90
15713;DHT22;7957;51.608;6.916;2022-10-15T11:21:02;15.50;99.90
15713;DHT22;7957;51.608;6.916;2022-10-15T11:23:50;15.70;99.90
15713;DHT22;7957;51.608;6.916;2022-10-15T11:26:33;15.50;99.90
15713;DHT22;7957;51.608;6.916;2022-10-15T11:29:10;15.40;99.90
15713;DHT22;7957;51.608;6.916;2022-10-15T11:31:45;15.40;99.90
15713;DHT22;7957;51.608;6.916;2022-10-15T11:34:24;15.40;99.90
15713;DHT22;7957;51.608;6.916;2022-10-15T11:37:06;15.30;99.90
15713;DHT22;7957;51.608;6.916;2022-10-15T11:39:48;15.30;99.90
15713;DHT22;7957;51.608;6.916;2022-10-15T11:42:24;15.30;99.90
15713;DHT22;7957;51.608;6.916;2022-10-15T11:45:08;15.30;99.90
15713;DHT22;7957;51.608;6.916;2022-10-15T11:47:49;15.30;99.90
15713;DHT22;7957;51.608;6.916;2022-10-15T11:50:26;15.20;99.90
15713;DHT22;7957;51.608;6.916;2022-10-15T11:53:07;15.30;99.90
15713;DHT22;7957;51.608;6.916;2022-10-15T11:55:40;15.30;99.90
15713;DHT22;7957;51.608;6.916;2022-10-15T11:58:20;15.30;99.90
15713;DHT22;7957;51.608;6.916;2022-10-15T12:00:54;15.30;99.90
15713;DHT22;7957;51.608;6.916;2022-10-15T12:03:24;15.30;99.90
15713;DHT22;7957;51.608;6.916;2022-10-15T12:05:57;15.40;99.90
15713;DHT22;7957;51.608;6.916;2022-10-15T12:08:28;15.40;99.90
15713;DHT22;7957;51.608;6.916;2022-10-15T12:11:04;15.40;99.90
15713;DHT22;7957;51.608;6.916;2022-10-15T12:13:39;15.30;99.90
15713;DHT22;7957;51.608;6.916;2022-10-15T12:16:15;15.40;99.90
15713;DHT22;7957;51.608;6.916;2022-10-15T12:18:50;15.40;99.90
15713;DHT22;7957;51.608;6.916;2022-10-15T12:21:30;15.50;99.90
15713;DHT22;7957;51.608;6.916;2022-10-15T12:23:58;15.50;99.90
15713;DHT22;7957;51.608;6.916;2022-10-15T12:26:28;15.50;99.90
15713;DHT22;7957;51.608;6.916;2022-10-15T12:28:59;15.60;99.90
15713;DHT22;7957;51.608;6.916;2022-10-15T12:31:43;15.60;99.90
15713;DHT22;7957;51.608;6.916;2022-10-15T12:34:36;15.60;99.90
15713;DHT22;7957;51.608;6.916;2022-10-15T13:19:33;16.00;99.90
15713;DHT22;7957;51.608;6.916;2022-10-15T13:22:02;16.10;99.90
15713;DHT22;7957;51.608;6.916;2022-10-15T13:24:38;16.10;99.90
15713;DHT22;7957;51.608;6.916;2022-10-15T13:27:13;16.10;99.90
15713;DHT22;7957;51.608;6.916;2022-10-15T13:29:55;16.10;99.90
15713;DHT22;7957;51.608;6.916;2022-10-15T13:32:22;16.10;99.90
15713;DHT22;7957;51.608;6.916;2022-10-15T13:34:51;16.10;99.90
15713;DHT22;7957;51.608;6.916;2022-10-15T13:37:26;16.10;99.90
15713;DHT22;7957;51.608;6.916;2022-10-15T13:39:54;16.10;99.90
15713;DHT22;7957;51.608;6.916;2022-10-15T13:42:23;16.10;99.90
15713;DHT22;7957;51.608;6.916;2022-10-15T13:45:01;16.10;99.90
15713;DHT22;7957;51.608;6.916;2022-10-15T13:47:31;16.20;99.90
15713;DHT22;7957;51.608;6.916;2022-10-15T13:50:19;16.20;99.90
15713;DHT22;7957;51.608;6.916;2022-10-15T13:52:51;16.20;99.90
15713;DHT22;7957;51.608;6.916;2022-10-15T13:55:22;16.30;99.90
15713;DHT22;7957;51.608;6.916;2022-10-15T13:57:52;16.30;99.90
15713;DHT22;7957;51.608;6.916;2022-10-15T14:00:24;16.40;99.90
15713;DHT22;7957;51.608;6.916;2022-10-15T14:03:17;16.40;99.90
15713;DHT22;7957;51.608;6.916;2022-10-15T14:05:47;16.40;99.90
15713;DHT22;7957;51.608;6.916;2022-10-15T14:08:27;16.30;99.90
15713;DHT22;7957;51.608;6.916;2022-10-15T14:10:57;16.40;99.90
15713;DHT22;7957;51.608;6.916;2022-10-15T14:13:25;16.40;99.90
15713;DHT22;7957;51.608;6.916;2022-10-15T14:15:59;16.40;99.90
15713;DHT22;7957;51.608;6.916;2022-10-15T14:18:30;16.40;99.90
15713;DHT22;7957;51.608;6.916;2022-10-15T14:21:00;16.40;99.90
15713;DHT22;7957;51.608;6.916;2022-10-15T14:23:28;16.40;99.90
15713;DHT22;7957;51.608;6.916;2022-10-15T14:25:57;16.40;99.90
15713;DHT22;7957;51.608;6.916;2022-10-15T14:28:25;16.40;99.90
15713;DHT22;7957;51.608;6.916;2022-10-15T14:30:52;16.40;99.90
15713;DHT22;7957;51.608;6.916;2022-10-15T14:33:41;16.40;99.90
15713;DHT22;7957;51.608;6.916;2022-10-15T14:36:13;16.40;99.90
15713;DHT22;7957;51.608;6.916;2022-10-15T14:38:47;16.40;99.90
15713;DHT22;7957;51.608;6.916;2022-10-15T14:41:25;16.40;99.90
15713;DHT22;7957;51.608;6.916;2022-10-15T14:44:15;16.50;99.90
15713;DHT22;7957;51.608;6.916;2022-10-15T14:46:44;16.50;99.90
15713;DHT22;7957;51.608;6.916;2022-10-15T14:49:16;16.50;99.90
15713;DHT22;7957;51.608;6.916;2022-10-15T14:51:55;16.40;99.90
15713;DHT22;7957;51.608;6.916;2022-10-15T14:54:26;16.50;99.90
15713;DHT22;7957;51.608;6.916;2022-10-15T14:56:56;16.40;99.90
15713;DHT22;7957;51.608;6.916;2022-10-15T14:59:28;16.50;99.90
15713;DHT22;7957;51.608;6.916;2022-10-15T15:01:57;16.40;99.90
15713;DHT22;7957;51.608;6.916;2022-10-15T15:04:38;16.40;99.90
15713;DHT22;7957;51.608;6.916;2022-10-15T15:07:12;16.40;99.90
15713;DHT22;7957;51.608;6.916;2022-10-15T15:09:39;16.40;99.90
15713;DHT22;7957;51.608;6.916;2022-10-15T15:12:14;16.40;99.90
15713;DHT22;7957;51.608;6.916;2022-10-15T15:14:42;16.40;99.90
15713;DHT22;7957;51.608;6.916;2022-10-15T15:17:14;16.30;99.90
15713;DHT22;7957;51.608;6.916;2022-10-15T15:19:41;16.30;99.90
15713;DHT22;7957;51.608;6.916;2022-10-15T15:22:11;16.30;99.90
15713;DHT22;7957;51.608;6.916;2022-10-15T15:24:39;16.30;99.90
15713;DHT22;7957;51.608;6.916;2022-10-15T15:27:06;16.30;99.90
15713;DHT22;7957;51.608;6.916;2022-10-15T15:29:33;16.30;99.90
15713;DHT22;7957;51.608;6.916;2022-10-15T15:32:00;16.30;99.90
15713;DHT22;7957;51.608;6.916;2022-10-15T15:34:27;16.30;99.90
15713;DHT22;7957;51.608;6.916;2022-10-15T15:36:53;16.30;99.90
15713;DHT22;7957;51.608;6.916;2022-10-15T15:39:22;16.30;99.90
15713;DHT22;7957;51.608;6.916;2022-10-15T15:41:49;16.30;99.90
15713;DHT22;7957;51.608;6.916;2022-10-15T15:44:16;16.20;99.90
15713;DHT22;7957;51.608;6.916;2022-10-15T15:46:43;16.20;99.90
15713;DHT22;7957;51.608;6.916;2022-10-15T15:49:14;16.20;99.90
15713;DHT22;7957;51.608;6.916;2022-10-15T15:51:41;16.20;99.90
15713;DHT22;7957;51.608;6.916;2022-10-15T15:54:08;16.20;99.90
15713;DHT22;7957;51.608;6.916;2022-10-15T15:56:36;16.20;99.90
15713;DHT22;7957;51.608;6.916;2022-10-15T15:59:05;16.10;99.90
15713;DHT22;7957;51.608;6.916;2022-10-15T16:01:32;16.10;99.90
15713;DHT22;7957;51.608;6.916;2022-10-15T16:03:59;16.10;99.90
15713;DHT22;7957;51.608;6.916;2022-10-15T16:06:25;16.10;99.90
15713;DHT22;7957;51.608;6.916;2022-10-15T16:08:52;16.10;99.90
15713;DHT22;7957;51.608;6.916;2022-10-15T16:11:19;16.00;99.90
15713;DHT22;7957;51.608;6.916;2022-10-15T16:13:48;16.00;99.90
15713;DHT22;7957;51.608;6.916;2022-10-15T16:16:15;16.00;99.90
15713;DHT22;7957;51.608;6.916;2022-10-15T16:18:42;16.00;99.90
15713;DHT22;7957;51.608;6.916;2022-10-15T16:21:09;16.00;99.90
15713;DHT22;7957;51.608;6.916;2022-10-15T16:23:36;15.90;99.90
15713;DHT22;7957;51.608;6.916;2022-10-15T16:26:03;15.90;99.90
15713;DHT22;7957;51.608;6.916;2022-10-15T16:28:30;15.70;99.90
15713;DHT22;7957;51.608;6.916;2022-10-15T16:33:53;15.70;99.90
15713;DHT22;7957;51.608;6.916;2022-10-15T16:36:20;15.50;99.90
15713;DHT22;7957;51.608;6.916;2022-10-15T16:38:47;15.50;99.90
15713;DHT22;7957;51.608;6.916;2022-10-15T16:41:15;15.40;99.90
15713;DHT22;7957;51.608;6.916;2022-10-15T16:43:44;15.30;99.90
15713;DHT22;7957;51.608;6.916;2022-10-15T16:46:12;15.30;99.90
15713;DHT22;7957;51.608;6.916;2022-10-15T16:48:39;15.20;99.90
15713;DHT22;7957;51.608;6.916;2022-10-15T16:51:08;15.20;99.90
15713;DHT22;7957;51.608;6.916;2022-10-15T16:53:36;15.20;99.90
15713;DHT22;7957;51.608;6.916;2022-10-15T16:56:04;15.10;99.90
15713;DHT22;7957;51.608;6.916;2022-10-15T16:58:32;15.10;99.90
15713;DHT22;7957;51.608;6.916;2022-10-15T17:01:01;15.10;99.90